Time;durP1;ratioP1;P1;durP2;ratioP2;P2;SDS_P1;SDS_P2;PMS_P1;PMS_P2;Temp;Humidity;BMP_temperature;BMP_pressure;BME280_temperature;BME280_humidity;BME280_pressure;Samples;Min_cycle;Max_cycle;Signal;HPM_P1;HPM_P2
2023/06/23 00:01:20;;;;;;;16.55;14.82;;;589.70;2432.00;;;;;;5053306;28;20113;-79
2023/06/23 00:03:46;;;;;;;15.98;14.10;;;589.70;2432.00;;;;;;5052165;28;20021;-81
2023/06/23 00:06:13;;;;;;;19.23;15.18;;;589.70;2432.00;;;;;;5031821;28;20056;-77
2023/06/23 00:08:39;;;;;;;18.55;16.70;;;589.10;2432.00;;;;;;5032627;28;20029;-80
2023/06/23 00:11:09;;;;;;;16.90;15.05;;;589.70;2432.00;;;;;;5051893;28;20060;-82
2023/06/23 00:13:36;;;;;;;18.00;13.93;;;589.70;2432.00;;;;;;5052349;28;20535;-81
2023/06/23 00:16:05;;;;;;;16.58;14.68;;;589.60;2432.00;;;;;;5052395;28;20040;-80
2023/06/23 00:18:36;;;;;;;15.68;14.07;;;589.50;2432.00;;;;;;5052152;28;20060;-81
2023/06/23 00:21:08;;;;;;;16.80;15.13;;;589.50;2432.00;;;;;;5052499;28;20127;-84
2023/06/23 00:23:34;;;;;;;17.52;14.20;;;589.40;2432.00;;;;;;5053831;28;20079;-83
2023/06/23 00:26:03;;;;;;;17.75;15.05;;;589.50;2432.00;;;;;;5051790;28;20082;-81
2023/06/23 00:28:29;;;;;;;16.33;14.63;;;589.50;2432.00;;;;;;5052085;28;20029;-82
2023/06/23 00:30:55;;;;;;;18.67;15.02;;;589.30;2432.00;;;;;;5050775;28;20064;-82
2023/06/23 00:33:21;;;;;;;18.40;16.38;;;589.40;2432.00;;;;;;5055441;28;20060;-80
2023/06/23 00:35:47;;;;;;;16.23;14.63;;;589.40;2432.00;;;;;;5055844;28;20490;-80
2023/06/23 00:38:13;;;;;;;19.35;14.32;;;589.30;2432.00;;;;;;5055714;28;20028;-81
2023/06/23 00:40:40;;;;;;;16.60;14.05;;;589.30;2432.00;;;;;;5057248;28;20033;-80
2023/06/23 00:43:06;;;;;;;16.02;14.05;;;589.10;2432.00;;;;;;5057059;28;20025;-81
2023/06/23 00:45:32;;;;;;;17.58;14.27;;;564.10;2432.00;;;;;;5055578;28;20041;-81
2023/06/23 00:47:58;;;;;;;18.23;13.02;;;564.00;2432.00;;;;;;5055549;28;20495;-80
2023/06/23 00:50:25;;;;;;;17.02;13.57;;;588.80;2432.00;;;;;;5055668;28;20086;-81
2023/06/23 00:52:52;;;;;;;14.50;12.77;;;588.90;2432.00;;;;;;5057009;28;20032;-82
2023/06/23 00:55:27;;;;;;;17.88;13.02;;;589.00;2432.00;;;;;;5055608;28;20037;-80
2023/06/23 00:57:55;;;;;;;17.52;12.55;;;589.00;2432.00;;;;;;5055587;28;20020;-81
2023/06/23 01:00:25;;;;;;;16.90;12.43;;;588.90;2432.00;;;;;;5054064;28;20095;-79
2023/06/23 01:02:52;;;;;;;16.77;12.18;;;589.00;2432.00;;;;;;5056747;28;20460;-79
2023/06/23 01:05:26;;;;;;;16.67;14.27;;;588.80;2432.00;;;;;;5055223;28;20036;-80
2023/06/23 01:08:19;;;;;;;17.55;14.60;;;564.10;2432.00;;;;;;5055308;28;20033;-80
2023/06/23 01:11:03;;;;;;;18.15;14.82;;;564.10;2432.00;;;;;;5055149;28;20032;-82
2023/06/23 01:13:37;;;;;;;21.75;14.32;;;563.90;2432.00;;;;;;5056682;28;20021;-82
2023/06/23 01:16:19;;;;;;;18.40;14.38;;;563.90;2432.00;;;;;;5055026;28;20025;-81
2023/06/23 01:18:57;;;;;;;15.52;12.77;;;563.90;2432.00;;;;;;5055471;28;20475;-81
2023/06/23 01:22:21;;;;;;;19.35;14.38;;;564.00;2432.00;;;;;;5055097;28;20075;-82
2023/06/23 01:25:11;;;;;;;17.02;14.35;;;564.10;2432.00;;;;;;5043404;28;20078;-80
2023/06/23 01:28:03;;;;;;;16.75;14.32;;;564.00;2432.00;;;;;;5055109;28;20430;-80
2023/06/23 01:30:31;;;;;;;18.23;14.07;;;563.90;2432.00;;;;;;5053346;28;20433;-81
2023/06/23 01:33:06;;;;;;;15.93;13.80;;;564.00;2432.00;;;;;;5056312;28;20036;-81
2023/06/23 01:35:37;;;;;;;15.45;13.85;;;564.00;2432.00;;;;;;5055933;28;20541;-82
2023/06/23 01:38:22;;;;;;;18.88;13.98;;;563.90;2432.00;;;;;;5054884;28;20029;-80
2023/06/23 01:40:54;;;;;;;16.00;13.95;;;564.00;2432.00;;;;;;5056231;28;20082;-80
2023/06/23 01:43:29;;;;;;;20.02;14.45;;;563.80;2432.00;;;;;;5056474;28;20430;-79
2023/06/23 01:46:04;;;;;;;19.73;15.02;;;563.80;2432.00;;;;;;5067233;28;20036;-79
2023/06/23 01:48:34;;;;;;;17.17;15.40;;;563.60;2432.00;;;;;;5068506;28;20033;-81
2023/06/23 01:51:02;;;;;;;17.38;13.68;;;563.60;2432.00;;;;;;5054647;28;20036;-80
2023/06/23 01:53:31;;;;;;;17.48;15.10;;;563.60;2432.00;;;;;;5054895;28;20469;-80
2023/06/23 01:56:02;;;;;;;15.30;13.52;;;563.70;2432.00;;;;;;5055778;28;20029;-82
2023/06/23 01:58:30;;;;;;;17.85;13.88;;;563.60;2432.00;;;;;;5054643;28;20025;-79
2023/06/23 02:00:57;;;;;;;17.50;14.50;;;563.70;2432.00;;;;;;5054280;28;20041;-82
2023/06/23 02:03:24;;;;;;;18.52;13.35;;;563.80;2432.00;;;;;;5054114;28;20036;-81
2023/06/23 02:05:51;;;;;;;17.13;13.02;;;563.70;2432.00;;;;;;5056038;28;20048;-79
2023/06/23 02:08:18;;;;;;;16.08;14.07;;;563.70;2432.00;;;;;;5065469;28;20035;-79
2023/06/23 02:10:44;;;;;;;17.02;13.73;;;563.80;2432.00;;;;;;5058017;28;20033;-80
2023/06/23 02:13:13;;;;;;;16.30;14.57;;;563.90;2432.00;;;;;;5054199;28;20048;-80
2023/06/23 02:15:40;;;;;;;15.98;13.15;;;563.80;2432.00;;;;;;5054012;28;20029;-80
2023/06/23 02:18:09;;;;;;;16.40;12.98;;;563.80;2432.00;;;;;;5054734;28;20029;-81
2023/06/23 02:20:37;;;;;;;17.20;14.15;;;563.80;2432.00;;;;;;5054052;28;20040;-82
2023/06/23 02:23:04;;;;;;;17.13;14.88;;;563.70;2432.00;;;;;;5055058;28;20100;-79
2023/06/23 02:25:31;;;;;;;17.00;14.00;;;563.70;2432.00;;;;;;5053658;28;20347;-81
2023/06/23 02:27:58;;;;;;;16.63;14.15;;;563.60;2432.00;;;;;;5053817;28;20025;-81
2023/06/23 02:30:24;;;;;;;17.92;14.45;;;563.60;2432.00;;;;;;5053949;28;20469;-81
2023/06/23 02:32:49;;;;;;;16.33;13.88;;;563.70;2432.00;;;;;;5055067;28;20028;-80
2023/06/23 02:35:16;;;;;;;18.95;13.95;;;563.70;2432.00;;;;;;5053838;28;20113;-80
2023/06/23 02:37:55;;;;;;;14.88;12.90;;;563.70;2432.00;;;;;;5053760;28;20082;-80
2023/06/23 02:40:25;;;;;;;21.65;13.98;;;563.70;2432.00;;;;;;5055012;28;20118;-81
2023/06/23 02:43:32;;;;;;;18.80;13.80;;;563.70;2432.00;;;;;;5055206;28;20021;-80
2023/06/23 02:46:03;;;;;;;18.30;13.75;;;563.60;2432.00;;;;;;5053213;28;20056;-80
2023/06/23 02:48:38;;;;;;;18.63;13.93;;;563.70;2432.00;;;;;;5054763;28;20032;-80
2023/06/23 02:51:08;;;;;;;19.27;13.57;;;563.70;2432.00;;;;;;5053291;28;20107;-81
2023/06/23 02:53:45;;;;;;;17.23;14.80;;;563.60;2432.00;;;;;;5053219;28;20045;-79
2023/06/23 02:56:25;;;;;;;16.20;14.40;;;563.20;2432.00;;;;;;5037189;28;20026;-82
2023/06/23 02:58:58;;;;;;;16.40;14.73;;;538.40;2406.40;;;;;;5034577;28;20025;-81
2023/06/23 03:01:26;;;;;;;;;;;538.30;2406.40;;;;;;5033620;28;20469;-80
2023/06/23 03:03:53;;;;;;;17.95;14.57;;;538.30;2406.40;;;;;;5033358;28;19932;-79
2023/06/23 03:06:20;;;;;;;17.85;13.77;;;538.20;2406.40;;;;;;5032739;28;20152;-82
2023/06/23 03:08:49;;;;;;;19.45;14.65;;;538.30;2406.40;;;;;;5033229;28;20037;-82
2023/06/23 03:11:19;;;;;;;17.88;14.15;;;538.40;2406.40;;;;;;5033174;28;20034;-81
2023/06/23 03:13:45;;;;;;;17.90;12.90;;;538.50;2406.40;;;;;;5032942;28;20056;-81
2023/06/23 03:16:29;;;;;;;22.83;13.38;;;538.30;2406.40;;;;;;5033281;28;20026;-80
2023/06/23 03:19:19;;;;;;;16.05;13.98;;;538.50;2406.40;;;;;;5034216;28;20028;-81
2023/06/23 03:21:53;;;;;;;17.27;13.30;;;563.20;2432.00;;;;;;5032748;28;20369;-81
2023/06/23 03:24:21;;;;;;;17.40;12.98;;;538.50;2406.40;;;;;;5033119;28;20359;-80
2023/06/23 03:26:50;;;;;;;15.68;14.05;;;538.20;2406.40;;;;;;5032859;28;20026;-79
2023/06/23 03:29:19;;;;;;;19.02;14.25;;;538.10;2406.40;;;;;;5032577;28;20061;-81
2023/06/23 03:31:46;;;;;;;14.30;12.73;;;538.20;2406.40;;;;;;5032861;28;20037;-81
2023/06/23 03:34:16;;;;;;;16.42;12.45;;;538.30;2406.40;;;;;;5034189;28;20485;-79
2023/06/23 03:36:43;;;;;;;15.60;12.60;;;538.20;2406.40;;;;;;5034019;28;20178;-80
2023/06/23 03:39:17;;;;;;;16.80;14.07;;;538.20;2406.40;;;;;;5032916;28;20026;-80
2023/06/23 03:41:43;;;;;;;20.33;14.43;;;538.30;2406.40;;;;;;5032574;28;20029;-83
2023/06/23 03:44:30;;;;;;;17.13;13.13;;;538.30;2406.40;;;;;;5032710;28;20385;-80
2023/06/23 03:47:15;;;;;;;18.27;13.45;;;538.30;2406.40;;;;;;5034033;28;20065;-80
2023/06/23 03:49:55;;;;;;;17.50;13.75;;;538.30;2406.40;;;;;;5033761;28;20034;-82
2023/06/23 03:52:23;;;;;;;19.77;13.65;;;538.50;2406.40;;;;;;5033222;28;20030;-82
2023/06/23 03:54:53;;;;;;;17.13;13.63;;;538.50;2406.40;;;;;;5032958;28;20026;-80
2023/06/23 03:57:22;;;;;;;16.35;12.60;;;538.50;2406.40;;;;;;5032427;28;20068;-81
2023/06/23 03:59:50;;;;;;;16.45;11.85;;;563.30;2432.00;;;;;;5038472;28;20040;-81
2023/06/23 04:02:20;;;;;;;16.35;11.77;;;563.40;2432.00;;;;;;5051968;28;20025;-80
2023/06/23 04:04:48;;;;;;;17.08;12.43;;;563.40;2432.00;;;;;;5052459;28;20040;-81
2023/06/23 04:07:15;;;;;;;15.13;12.63;;;563.20;2432.00;;;;;;5054672;28;20615;-81
2023/06/23 04:09:45;;;;;;;13.88;12.40;;;563.20;2432.00;;;;;;5056878;28;20025;-81
2023/06/23 04:12:13;;;;;;;14.75;12.85;;;538.50;2406.40;;;;;;5057084;28;20040;-80
2023/06/23 04:14:41;;;;;;;17.98;13.10;;;563.20;2432.00;;;;;;5058217;28;20369;-79
2023/06/23 04:17:09;;;;;;;17.02;12.63;;;563.20;2432.00;;;;;;5056329;28;20071;-79
2023/06/23 04:19:38;;;;;;;15.15;12.60;;;563.50;2432.00;;;;;;5056797;28;20029;-79
2023/06/23 04:22:06;;;;;;;14.43;12.93;;;563.20;2432.00;;;;;;5056615;28;20025;-81
2023/06/23 04:24:35;;;;;;;18.42;13.90;;;563.20;2432.00;;;;;;5056245;28;20380;-80
2023/06/23 04:27:02;;;;;;;14.70;13.18;;;538.50;2406.40;;;;;;5056456;28;20116;-81
2023/06/23 04:29:30;;;;;;;16.60;12.65;;;538.40;2406.40;;;;;;5056745;28;20029;-79
2023/06/23 04:31:58;;;;;;;17.23;13.52;;;538.50;2406.40;;;;;;5055824;28;20479;-79
2023/06/23 04:34:24;;;;;;;17.67;12.73;;;538.50;2406.40;;;;;;5057146;28;20057;-79
2023/06/23 04:37:01;;;;;;;16.10;13.25;;;563.20;2432.00;;;;;;5056350;28;20029;-82
2023/06/23 04:39:43;;;;;;;16.98;13.35;;;563.30;2432.00;;;;;;5056413;28;20515;-82
2023/06/23 04:42:12;;;;;;;15.63;12.30;;;563.30;2432.00;;;;;;5056970;28;20423;-81
2023/06/23 04:44:46;;;;;;;16.38;12.95;;;563.20;2432.00;;;;;;5056060;28;20025;-80
2023/06/23 04:47:14;;;;;;;20.80;14.50;;;563.40;2432.00;;;;;;5056536;28;20029;-82
2023/06/23 04:49:44;;;;;;;21.17;14.38;;;563.40;2432.00;;;;;;5056261;28;20025;-81
2023/06/23 04:52:13;;;;;;;17.38;14.80;;;563.20;2432.00;;;;;;5061090;28;20048;-79
2023/06/23 04:54:42;;;;;;;17.83;14.55;;;563.30;2432.00;;;;;;5077076;28;20025;-80
2023/06/23 04:57:19;;;;;;;19.52;14.90;;;563.30;2432.00;;;;;;5055566;28;20087;-80
2023/06/23 04:59:59;;;;;;;17.35;14.10;;;563.30;2432.00;;;;;;5055390;28;20047;-80
2023/06/23 05:02:27;;;;;;;17.70;13.73;;;563.50;2432.00;;;;;;5056653;28;20029;-80
2023/06/23 05:04:55;;;;;;;17.48;13.88;;;563.60;2432.00;;;;;;5055464;28;20484;-80
2023/06/23 05:07:23;;;;;;;16.30;14.18;;;563.70;2432.00;;;;;;5054979;28;20132;-81
2023/06/23 05:09:50;;;;;;;19.05;14.75;;;563.70;2432.00;;;;;;5055236;28;20128;-80
2023/06/23 05:12:18;;;;;;;16.40;14.68;;;563.80;2432.00;;;;;;5055044;28;20060;-80
2023/06/23 05:14:47;;;;;;;19.83;14.40;;;563.80;2432.00;;;;;;5056685;28;20025;-80
2023/06/23 05:17:14;;;;;;;20.15;15.05;;;563.80;2432.00;;;;;;5055468;28;20060;-79
2023/06/23 05:19:46;;;;;;;17.52;15.15;;;563.90;2432.00;;;;;;5054872;28;20025;-79
2023/06/23 05:22:18;;;;;;;17.60;15.18;;;564.00;2432.00;;;;;;5054907;28;20060;-81
2023/06/23 05:24:46;;;;;;;;;;;564.00;2432.00;;;;;;5057574;28;20037;-80
2023/06/23 05:27:13;;;;;;;17.88;15.18;;;564.00;2432.00;;;;;;5054749;28;19909;-79
2023/06/23 05:29:42;;;;;;;18.85;14.32;;;564.10;2432.00;;;;;;5054445;28;20461;-80
2023/06/23 05:32:16;;;;;;;18.77;14.00;;;588.80;2432.00;;;;;;5055402;28;20033;-83
2023/06/23 05:34:45;;;;;;;16.80;14.40;;;588.90;2432.00;;;;;;5054963;28;20040;-80
2023/06/23 05:37:12;;;;;;;20.80;14.10;;;589.00;2432.00;;;;;;5055010;28;20048;-83
2023/06/23 05:39:40;;;;;;;19.20;15.50;;;589.10;2432.00;;;;;;5054875;28;20054;-80
2023/06/23 05:42:07;;;;;;;19.30;14.55;;;589.10;2432.00;;;;;;5054882;28;20110;-81
2023/06/23 05:44:33;;;;;;;21.27;15.30;;;589.10;2432.00;;;;;;5056166;28;20061;-82
2023/06/23 05:47:00;;;;;;;18.40;13.20;;;589.20;2432.00;;;;;;5054574;28;20082;-78
2023/06/23 05:49:29;;;;;;;18.38;13.88;;;589.30;2432.00;;;;;;5054458;28;20021;-79
2023/06/23 05:52:02;;;;;;;19.13;13.57;;;589.50;2432.00;;;;;;5054425;28;20138;-79
2023/06/23 05:54:30;;;;;;;15.73;14.05;;;589.60;2432.00;;;;;;5055501;28;20087;-80
2023/06/23 05:57:00;;;;;;;18.88;14.65;;;589.60;2432.00;;;;;;5055605;28;20056;-78
2023/06/23 05:59:42;;;;;;;18.27;14.65;;;589.60;2432.00;;;;;;5054302;28;20029;-78
2023/06/23 06:02:21;;;;;;;18.35;14.82;;;589.70;2432.00;;;;;;5055255;28;20104;-78
2023/06/23 06:04:56;;;;;;;15.02;13.43;;;614.40;2432.00;;;;;;5036386;28;20495;-79
2023/06/23 06:07:22;;;;;;;15.70;13.95;;;614.40;2432.00;;;;;;5035228;28;20240;-81
2023/06/23 06:09:49;;;;;;;16.25;14.55;;;614.50;2432.00;;;;;;5032559;28;20022;-80
2023/06/23 06:12:16;;;;;;;21.10;14.82;;;614.60;2432.00;;;;;;5033721;28;20037;-79
2023/06/23 06:14:43;;;;;;;17.33;14.82;;;614.60;2432.00;;;;;;5034946;28;20108;-81
2023/06/23 06:17:10;;;;;;;20.38;14.85;;;614.70;2432.00;;;;;;5034783;28;20087;-80
2023/06/23 06:19:39;;;;;;;24.05;15.35;;;614.80;2432.00;;;;;;5033494;28;20418;-79
2023/06/23 06:22:08;;;;;;;22.20;15.85;;;614.80;2432.00;;;;;;5034211;28;20036;-80
2023/06/23 06:24:35;;;;;;;17.70;14.18;;;614.90;2432.00;;;;;;5033811;28;20053;-79
2023/06/23 06:27:04;;;;;;;16.58;14.88;;;614.90;2432.00;;;;;;5033820;28;20175;-77
2023/06/23 06:29:32;;;;;;;20.17;13.82;;;615.10;2432.00;;;;;;5032417;28;20030;-80
2023/06/23 06:32:00;;;;;;;21.00;14.77;;;615.10;2432.00;;;;;;5035020;28;20034;-80
2023/06/23 06:34:29;;;;;;;22.63;13.85;;;615.20;2432.00;;;;;;5049773;28;20101;-80
2023/06/23 06:36:56;;;;;;;18.33;15.07;;;640.00;2432.00;;;;;;5053333;28;20029;-81
2023/06/23 06:39:24;;;;;;;22.52;15.25;;;640.10;2432.00;;;;;;5053627;28;20078;-82
2023/06/23 06:41:50;;;;;;;19.13;15.85;;;640.30;2432.00;;;;;;5053588;28;20115;-81
2023/06/23 06:44:16;;;;;;;18.13;14.63;;;640.50;2432.00;;;;;;5053292;28;20167;-83
2023/06/23 06:46:43;;;;;;;21.10;15.98;;;640.40;2432.00;;;;;;5053519;28;20028;-83
2023/06/23 06:49:10;;;;;;;20.08;16.30;;;640.70;2432.00;;;;;;5053561;28;20029;-83
2023/06/23 06:51:40;;;;;;;27.92;15.27;;;640.80;2432.00;;;;;;5053168;28;20040;-81
2023/06/23 06:54:06;;;;;;;18.42;15.90;;;665.70;2432.00;;;;;;5053518;28;20040;-79
2023/06/23 06:56:34;;;;;;;18.02;16.00;;;665.70;2432.00;;;;;;5053458;28;20056;-80
2023/06/23 06:59:00;;;;;;;18.83;15.35;;;665.90;2432.00;;;;;;5057117;28;20043;-81
2023/06/23 07:01:27;;;;;;;18.83;14.70;;;665.90;2432.00;;;;;;5053821;28;20111;-83
2023/06/23 07:03:55;;;;;;;18.83;14.65;;;666.20;2432.00;;;;;;5053363;28;20388;-81
2023/06/23 07:06:21;;;;;;;18.67;14.15;;;666.30;2432.00;;;;;;5054530;28;20091;-81
2023/06/23 07:08:47;;;;;;;17.85;14.48;;;666.00;2432.00;;;;;;5053432;28;20021;-79
2023/06/23 07:11:13;;;;;;;17.38;14.18;;;666.10;2432.00;;;;;;5052960;28;20036;-81
2023/06/23 07:13:39;;;;;;;15.75;14.10;;;666.00;2432.00;;;;;;5053471;28;20489;-81
2023/06/23 07:16:05;;;;;;;18.08;15.10;;;665.90;2432.00;;;;;;5052737;28;20074;-83
2023/06/23 07:18:31;;;;;;;17.00;15.13;;;666.10;2432.00;;;;;;5052680;28;20025;-81
2023/06/23 07:20:57;;;;;;;15.55;13.93;;;666.20;2432.00;;;;;;5054280;28;20079;-79
2023/06/23 07:23:23;;;;;;;14.77;12.40;;;666.20;2432.00;;;;;;5053248;28;20060;-80
2023/06/23 07:25:49;;;;;;;19.70;16.40;;;666.30;2432.00;;;;;;5052774;28;20389;-81
2023/06/23 07:28:14;;;;;;;16.83;13.48;;;691.20;2432.00;;;;;;5059406;28;20055;-80
2023/06/23 07:30:40;;;;;;;19.55;14.95;;;691.40;2432.00;;;;;;5056875;28;20044;-80
2023/06/23 07:33:07;;;;;;;14.95;13.30;;;;;;;;;;5052833;28;20441;-81
2023/06/23 07:35:33;;;;;;;14.80;12.60;;;691.80;2432.00;;;;;;5052786;28;20033;-82
2023/06/23 07:37:59;;;;;;;14.75;13.25;;;691.90;2432.00;;;;;;5054465;28;20111;-81
2023/06/23 07:40:25;;;;;;;14.52;13.02;;;692.10;2432.00;;;;;;5052846;28;20040;-80
2023/06/23 07:42:51;;;;;;;16.48;12.38;;;692.10;2432.00;;;;;;5053201;28;20377;-81
2023/06/23 07:45:17;;;;;;;20.17;15.75;;;692.10;2432.00;;;;;;5052720;28;20075;-81
2023/06/23 07:47:43;;;;;;;19.45;12.75;;;716.90;2432.00;;;;;;5057775;28;20013;-80
2023/06/23 07:50:09;;;;;;;14.25;11.95;;;716.80;2432.00;;;;;;5070399;28;20033;-79
2023/06/23 07:52:35;;;;;;;14.75;11.10;;;716.90;2432.00;;;;;;5053166;28;20120;-80
2023/06/23 07:55:01;;;;;;;15.60;13.80;;;716.80;2432.00;;;;;;5052345;28;20108;-80
2023/06/23 07:57:26;;;;;;;13.32;11.82;;;717.00;2432.00;;;;;;5051896;28;20446;-81
2023/06/23 07:59:52;;;;;;;14.90;11.73;;;717.20;2432.00;;;;;;5047639;28;20028;-82
2023/06/23 08:02:18;;;;;;;14.00;12.50;;;717.30;2432.00;;;;;;5033398;28;20028;-81
2023/06/23 08:04:44;;;;;;;13.30;11.77;;;717.40;2432.00;;;;;;5048676;28;20526;-81
2023/06/23 08:07:10;;;;;;;12.77;11.10;;;717.50;2432.00;;;;;;5052063;28;20492;-80
2023/06/23 08:09:35;;;;;;;15.50;12.93;;;717.70;2432.00;;;;;;5052161;28;20074;-78
2023/06/23 08:12:01;;;;;;;15.25;13.25;;;717.70;2432.00;;;;;;5053718;28;20056;-80
2023/06/23 08:14:27;;;;;;;15.00;11.57;;;742.40;2432.00;;;;;;5053701;28;20480;-77
2023/06/23 08:16:53;;;;;;;15.30;10.93;;;742.50;2432.00;;;;;;5053873;28;20055;-77
2023/06/23 08:19:21;;;;;;;18.98;13.35;;;742.40;2432.00;;;;;;5055211;28;20032;-79
2023/06/23 08:21:52;;;;;;;13.88;10.57;;;742.60;2432.00;;;;;;5053617;28;20469;-80
2023/06/23 08:24:18;;;;;;;15.10;10.82;;;742.50;2432.00;;;;;;5052348;28;20029;-80
2023/06/23 08:26:47;;;;;;;14.52;12.57;;;742.80;2432.00;;;;;;5052863;28;20048;-79
2023/06/23 08:29:14;;;;;;;12.90;11.32;;;742.50;2432.00;;;;;;5054451;28;20029;-78
2023/06/23 08:31:39;;;;;;;14.80;12.52;;;717.50;2432.00;;;;;;5075678;28;20023;-80
2023/06/23 08:34:05;;;;;;;15.55;12.65;;;742.40;2432.00;;;;;;5074561;28;20041;-80
2023/06/23 08:36:31;;;;;;;14.82;12.45;;;742.50;2432.00;;;;;;5074316;28;20025;-80
2023/06/23 08:38:57;;;;;;;12.82;10.45;;;742.90;2432.00;;;;;;5076710;28;20012;-79
2023/06/23 08:41:25;;;;;;;17.65;11.85;;;742.90;2432.00;;;;;;5069901;28;20080;-78
2023/06/23 08:43:53;;;;;;;14.65;12.23;;;743.00;2432.00;;;;;;5052675;28;20465;-79
2023/06/23 08:46:22;;;;;;;13.68;12.35;;;717.70;2432.00;;;;;;5053148;28;20104;-80
2023/06/23 08:48:51;;;;;;;12.57;10.45;;;742.90;2432.00;;;;;;5051328;28;20052;-79
2023/06/23 08:51:17;;;;;;;15.90;11.75;;;743.20;2432.00;;;;;;5050363;28;20426;-82
2023/06/23 08:53:44;;;;;;;11.63;10.43;;;768.10;2432.00;;;;;;5054202;28;20060;-80
2023/06/23 08:56:10;;;;;;;13.93;10.30;;;768.40;2432.00;;;;;;5056171;28;20025;-82
2023/06/23 08:58:36;;;;;;;12.77;10.30;;;768.20;2432.00;;;;;;5053669;28;20093;-83
2023/06/23 09:01:02;;;;;;;10.60;9.43;;;768.00;2432.00;;;;;;5043375;28;20034;-81
2023/06/23 09:03:28;;;;;;;12.02;10.70;;;743.30;2432.00;;;;;;5054382;28;20029;-79
2023/06/23 09:05:53;;;;;;;11.85;10.38;;;768.00;2432.00;;;;;;5056326;28;20048;-76
2023/06/23 09:08:20;;;;;;;15.82;12.70;;;768.30;2432.00;;;;;;5056462;28;20461;-78
2023/06/23 09:10:46;;;;;;;12.30;11.00;;;768.60;2432.00;;;;;;5056244;28;20362;-80
2023/06/23 09:13:20;;;;;;;18.13;13.60;;;768.90;2432.00;;;;;;5055322;28;20033;-81
2023/06/23 09:15:48;;;;;;;12.77;10.77;;;793.80;2432.00;;;;;;5055928;28;20029;-80
2023/06/23 09:18:15;;;;;;;13.00;11.48;;;794.00;2432.00;;;;;;5057202;28;20021;-80
2023/06/23 09:20:46;;;;;;;13.93;11.45;;;794.20;2432.00;;;;;;5055180;28;20063;-79
2023/06/23 09:23:16;;;;;;;14.75;10.50;;;794.10;2432.00;;;;;;5054885;28;20028;-81
2023/06/23 09:25:48;;;;;;;12.88;10.50;;;793.80;2432.00;;;;;;5054440;28;20033;-82
2023/06/23 09:28:30;;;;;;;14.63;11.57;;;793.80;2432.00;;;;;;5056367;28;20052;-80
2023/06/23 09:31:06;;;;;;;15.05;10.85;;;793.90;2432.00;;;;;;5054530;28;20059;-85
2023/06/23 09:33:32;;;;;;;12.50;10.77;;;794.30;2432.00;;;;;;5055265;28;20091;-83
2023/06/23 09:36:04;;;;;;;11.85;10.68;;;794.30;2432.00;;;;;;5054489;28;20025;-81
2023/06/23 09:38:35;;;;;;;14.65;10.35;;;819.30;2432.00;;;;;;5056286;28;20487;-83
2023/06/23 09:41:17;;;;;;;11.35;9.80;;;819.40;2432.00;;;;;;5054673;28;20029;-81
2023/06/23 09:43:50;;;;;;;12.18;10.98;;;819.40;2432.00;;;;;;5054286;28;20538;-79
2023/06/23 09:46:18;;;;;;;19.77;16.50;;;819.60;2432.00;;;;;;5054150;28;20021;-81
2023/06/23 09:48:47;;;;;;;17.77;15.98;;;819.70;2432.00;;;;;;5054425;28;20527;-79
2023/06/23 09:51:13;;;;;;;13.18;10.70;;;819.80;2432.00;;;;;;5054257;28;20060;-77
2023/06/23 09:53:41;;;;;;;13.90;11.18;;;819.80;2432.00;;;;;;5053742;28;20362;-76
2023/06/23 09:56:16;;;;;;;18.35;14.95;;;820.00;2432.00;;;;;;5053761;28;20054;-77
2023/06/23 09:58:44;;;;;;;38.45;34.47;;;820.10;2432.00;;;;;;5054131;28;20067;-78
2023/06/23 10:01:17;;;;;;;16.25;13.73;;;844.90;2432.00;;;;;;5053801;28;20029;-77
2023/06/23 10:03:51;;;;;;;11.02;10.02;;;845.10;2432.00;;;;;;5053893;28;20033;-79
2023/06/23 10:06:24;;;;;;;12.65;11.25;;;845.20;2432.00;;;;;;5053675;28;20128;-79
2023/06/23 10:08:59;;;;;;;16.15;14.45;;;845.40;2432.00;;;;;;5054160;28;20377;-79
2023/06/23 10:11:34;;;;;;;13.25;11.55;;;845.50;2432.00;;;;;;5068035;28;20029;-79
2023/06/23 10:14:05;;;;;;;10.55;9.35;;;845.60;2432.00;;;;;;5053293;28;20089;-79
2023/06/23 10:16:33;;;;;;;15.43;10.82;;;845.50;2406.40;;;;;;5053544;28;20021;-79
2023/06/23 10:18:59;;;;;;;11.98;10.15;;;845.70;2432.00;;;;;;5054920;28;20029;-78
2023/06/23 10:21:25;;;;;;;11.73;9.40;;;870.50;2432.00;;;;;;5053420;28;20040;-79
2023/06/23 10:23:56;;;;;;;11.25;8.93;;;870.40;2380.80;;;;;;5053802;28;20461;-78
2023/06/23 10:26:23;;;;;;;11.30;9.48;;;870.50;2380.80;;;;;;5053443;28;20020;-77
2023/06/23 10:28:50;;;;;;;11.63;9.55;;;845.60;2380.80;;;;;;5053064;28;20025;-79
2023/06/23 10:31:17;;;;;;;12.75;11.45;;;845.60;2406.40;;;;;;5053338;28;20031;-79
2023/06/23 10:33:44;;;;;;;16.38;10.77;;;870.50;2380.80;;;;;;5052023;28;20029;-78
2023/06/23 10:36:16;;;;;;;10.57;9.25;;;870.40;2380.80;;;;;;5053060;28;20045;-78
2023/06/23 10:38:45;;;;;;;14.65;9.65;;;845.60;2406.40;;;;;;5053276;28;20021;-78
2023/06/23 10:41:13;;;;;;;16.17;10.65;;;845.40;2406.40;;;;;;5069701;28;20051;-74
2023/06/23 10:43:41;;;;;;;11.50;9.75;;;870.40;2380.80;;;;;;5057526;28;20079;-79
2023/06/23 10:46:07;;;;;;;13.15;10.63;;;870.60;2380.80;;;;;;5054585;28;20420;-77
2023/06/23 10:48:34;;;;;;;13.05;11.63;;;870.90;2355.20;;;;;;5053040;28;20033;-78
2023/06/23 10:51:01;;;;;;;10.95;9.50;;;871.10;2329.60;;;;;;5051784;28;20025;-78
2023/06/23 10:53:32;;;;;;;11.93;10.82;;;870.90;2329.60;;;;;;5034294;28;20466;-78
2023/06/23 10:55:59;;;;;;;12.65;9.65;;;871.30;2304.00;;;;;;5039456;28;20025;-78
2023/06/23 10:58:26;;;;;;;12.10;10.05;;;896.10;2278.40;;;;;;5050255;28;20099;-80
2023/06/23 11:00:54;;;;;;;13.73;12.35;;;871.30;2278.40;;;;;;5051517;28;20052;-80
2023/06/23 11:03:34;;;;;;;16.60;12.18;;;896.20;2278.40;;;;;;5053779;28;20483;-78
2023/06/23 11:06:04;;;;;;;13.52;11.88;;;896.40;2252.80;;;;;;5053845;28;20083;-77
2023/06/23 11:08:33;;;;;;;10.38;9.32;;;896.20;2252.80;;;;;;5054195;28;20525;-80
2023/06/23 11:11:03;;;;;;;10.82;9.57;;;896.40;2227.20;;;;;;5053928;28;20488;-77
2023/06/23 11:13:56;;;;;;;12.38;10.57;;;871.30;2252.80;;;;;;5053033;28;20465;-81
2023/06/23 11:16:31;;;;;;;11.55;9.23;;;896.10;2252.80;;;;;;5047637;28;20029;-80
2023/06/23 11:18:58;;;;;;;12.35;9.55;;;896.10;2252.80;;;;;;5052710;28;20456;-80
2023/06/23 11:21:27;;;;;;;10.35;9.20;;;896.10;2252.80;;;;;;5052883;28;20095;-80
2023/06/23 11:24:17;;;;;;;21.00;9.75;;;896.50;2227.20;;;;;;5054024;28;20025;-79
2023/06/23 11:26:49;;;;;;;10.23;8.48;;;896.80;2201.60;;;;;;5052844;28;20040;-81
2023/06/23 11:29:20;;;;;;;11.27;8.90;;;896.80;2201.60;;;;;;5052576;28;20029;-81
2023/06/23 11:32:11;;;;;;;10.23;9.15;;;896.90;2201.60;;;;;;5052338;28;20025;-82
2023/06/23 11:35:01;;;;;;;11.95;9.45;;;921.70;2201.60;;;;;;5053501;28;20541;-79
2023/06/23 11:37:30;;;;;;;11.48;8.82;;;921.60;2201.60;;;;;;5052322;28;20133;-78
2023/06/23 11:39:57;;;;;;;14.10;10.30;;;921.70;2201.60;;;;;;5052472;28;20029;-80
2023/06/23 11:42:23;;;;;;;10.65;8.98;;;921.80;2176.00;;;;;;5052370;28;20488;-83
2023/06/23 11:44:49;;;;;;;11.38;8.98;;;922.00;2176.00;;;;;;5051982;28;20025;-81
2023/06/23 11:47:16;;;;;;;157.38;24.75;;;922.00;2150.40;;;;;;5052391;28;20021;-80
2023/06/23 11:49:42;;;;;;;188.60;32.40;;;922.00;2150.40;;;;;;5053764;28;20029;-81
2023/06/23 11:52:09;;;;;;;42.78;14.05;;;922.00;2176.00;;;;;;5053113;28;20037;-81
2023/06/23 11:54:35;;;;;;;13.02;9.45;;;922.00;2150.40;;;;;;5052225;28;20029;-79
2023/06/23 11:57:08;;;;;;;154.10;28.38;;;896.90;2150.40;;;;;;5052177;28;20025;-80
2023/06/23 11:59:35;;;;;;;46.17;14.57;;;921.60;2176.00;;;;;;5053204;28;20075;-80
2023/06/23 12:02:02;;;;;;;16.75;10.25;;;922.00;2176.00;;;;;;5052214;28;20029;-79
2023/06/23 12:04:28;;;;;;;13.77;9.80;;;922.00;2124.80;;;;;;5052538;28;20025;-81
2023/06/23 12:06:54;;;;;;;17.38;13.68;;;922.20;2124.80;;;;;;5051118;28;20048;-80
2023/06/23 12:09:20;;;;;;;13.23;10.35;;;922.00;2176.00;;;;;;5039648;28;20037;-79
2023/06/23 12:11:50;;;;;;;13.82;11.10;;;922.20;2150.40;;;;;;5050994;28;20037;-80
2023/06/23 12:14:16;;;;;;;14.65;9.38;;;922.40;2099.20;;;;;;5043336;28;20082;-81